sensor_id;sensor_type;location;lat;lon;timestamp;pressure;altitude;pressure_sealevel;temperature;humidity
76726;BME280;65651;53.154;17.916;2023-03-01T00:01:19;102493.19;;;-4.24;75.06
76726;BME280;65651;53.154;17.916;2023-03-01T00:03:47;102493.02;;;-4.25;74.97
76726;BME280;65651;53.154;17.916;2023-03-01T00:06:15;102492.67;;;-4.27;74.87
76726;BME280;65651;53.154;17.916;2023-03-01T00:08:44;102493.04;;;-4.29;74.84
76726;BME280;65651;53.154;17.916;2023-03-01T00:11:26;102490.40;;;-4.30;75.09
76726;BME280;65651;53.154;17.916;2023-03-01T00:13:57;102493.77;;;-4.34;75.03
76726;BME280;65651;53.154;17.916;2023-03-01T00:16:29;102491.30;;;-4.36;75.05
76726;BME280;65651;53.154;17.916;2023-03-01T00:18:57;102492.36;;;-4.39;75.13
76726;BME280;65651;53.154;17.916;2023-03-01T00:21:25;102493.95;;;-4.41;75.32
76726;BME280;65651;53.154;17.916;2023-03-01T00:23:54;102491.33;;;-4.41;75.34
76726;BME280;65651;53.154;17.916;2023-03-01T00:26:22;102482.20;;;-4.39;75.25
76726;BME280;65651;53.154;17.916;2023-03-01T00:28:51;102477.10;;;-4.38;75.41
76726;BME280;65651;53.154;17.916;2023-03-01T00:31:22;102477.45;;;-4.37;75.47
76726;BME280;65651;53.154;17.916;2023-03-01T00:33:55;102476.92;;;-4.37;75.46
76726;BME280;65651;53.154;17.916;2023-03-01T00:36:28;102476.92;;;-4.37;75.50
76726;BME280;65651;53.154;17.916;2023-03-01T00:38:56;102477.47;;;-4.39;75.45
76726;BME280;65651;53.154;17.916;2023-03-01T00:41:24;102478.17;;;-4.42;75.50
76726;BME280;65651;53.154;17.916;2023-03-01T00:43:54;102472.23;;;-4.45;75.71
76726;BME280;65651;53.154;17.916;2023-03-01T00:46:26;102468.21;;;-4.47;75.37
76726;BME280;65651;53.154;17.916;2023-03-01T00:48:54;102462.24;;;-4.50;75.69
76726;BME280;65651;53.154;17.916;2023-03-01T00:51:25;102457.35;;;-4.52;75.60
76726;BME280;65651;53.154;17.916;2023-03-01T00:53:55;102455.80;;;-4.53;75.65
76726;BME280;65651;53.154;17.916;2023-03-01T00:56:27;102456.13;;;-4.55;75.63
76726;BME280;65651;53.154;17.916;2023-03-01T00:58:54;102450.52;;;-4.55;75.82
76726;BME280;65651;53.154;17.916;2023-03-01T01:01:25;102449.65;;;-4.54;75.84
76726;BME280;65651;53.154;17.916;2023-03-01T01:03:57;102451.40;;;-4.52;75.70
76726;BME280;65651;53.154;17.916;2023-03-01T01:06:28;102447.88;;;-4.48;75.74
76726;BME280;65651;53.154;17.916;2023-03-01T01:08:57;102444.89;;;-4.44;75.66
76726;BME280;65651;53.154;17.916;2023-03-01T01:11:27;102446.79;;;-4.39;75.87
76726;BME280;65651;53.154;17.916;2023-03-01T01:13:58;102444.50;;;-4.36;75.86
76726;BME280;65651;53.154;17.916;2023-03-01T01:16:27;102435.73;;;-4.34;75.94
76726;BME280;65651;53.154;17.916;2023-03-01T01:18:55;102430.30;;;-4.34;75.70
76726;BME280;65651;53.154;17.916;2023-03-01T01:21:23;102426.98;;;-4.35;75.79
76726;BME280;65651;53.154;17.916;2023-03-01T01:23:51;102425.75;;;-4.37;75.73
76726;BME280;65651;53.154;17.916;2023-03-01T01:26:25;102425.41;;;-4.39;75.86
76726;BME280;65651;53.154;17.916;2023-03-01T01:28:53;102419.81;;;-4.41;75.89
76726;BME280;65651;53.154;17.916;2023-03-01T01:31:22;102414.55;;;-4.40;75.78
76726;BME280;65651;53.154;17.916;2023-03-01T01:33:53;102405.27;;;-4.39;75.88
76726;BME280;65651;53.154;17.916;2023-03-01T01:36:21;102411.20;;;-4.38;75.76
76726;BME280;65651;53.154;17.916;2023-03-01T01:38:50;102407.34;;;-4.37;75.81
76726;BME280;65651;53.154;17.916;2023-03-01T01:41:19;102400.16;;;-4.36;75.91
76726;BME280;65651;53.154;17.916;2023-03-01T01:44:11;102397.01;;;-4.36;75.85
76726;BME280;65651;53.154;17.916;2023-03-01T01:46:43;102395.23;;;-4.36;75.93
76726;BME280;65651;53.154;17.916;2023-03-01T01:49:46;102392.44;;;-4.37;75.91
76726;BME280;65651;53.154;17.916;2023-03-01T01:52:18;102386.48;;;-4.36;75.91
76726;BME280;65651;53.154;17.916;2023-03-01T01:57:35;102381.58;;;-4.35;75.89
76726;BME280;65651;53.154;17.916;2023-03-01T02:00:09;102379.64;;;-4.34;75.94
76726;BME280;65651;53.154;17.916;2023-03-01T02:02:45;102376.30;;;-4.33;75.89
76726;BME280;65651;53.154;17.916;2023-03-01T02:06:06;102374.36;;;-4.32;75.97
76726;BME280;65651;53.154;17.916;2023-03-01T02:08:08;102368.75;;;-4.31;76.06
76726;BME280;65651;53.154;17.916;2023-03-01T02:10:38;102376.64;;;-4.29;75.88
76726;BME280;65651;53.154;17.916;2023-03-01T02:13:07;102375.42;;;-4.29;76.10
76726;BME280;65651;53.154;17.916;2023-03-01T02:15:36;102376.29;;;-4.29;75.96
76726;BME280;65651;53.154;17.916;2023-03-01T02:18:05;102381.55;;;-4.28;76.03
76726;BME280;65651;53.154;17.916;2023-03-01T02:23:23;102388.21;;;-4.32;75.97
76726;BME280;65651;53.154;17.916;2023-03-01T02:28:32;102388.77;;;-4.35;76.14
76726;BME280;65651;53.154;17.916;2023-03-01T02:31:01;102384.91;;;-4.37;76.06
76726;BME280;65651;53.154;17.916;2023-03-01T02:33:48;102378.25;;;-4.39;75.93
76726;BME280;65651;53.154;17.916;2023-03-01T02:36:23;102377.73;;;-4.39;75.97
76726;BME280;65651;53.154;17.916;2023-03-01T02:38:54;102374.95;;;-4.42;76.14
76726;BME280;65651;53.154;17.916;2023-03-01T02:41:26;102368.48;;;-4.45;76.09
76726;BME280;65651;53.154;17.916;2023-03-01T02:43:55;102369.38;;;-4.48;76.14
76726;BME280;65651;53.154;17.916;2023-03-01T02:46:25;102364.98;;;-4.50;76.19
76726;BME280;65651;53.154;17.916;2023-03-01T02:48:57;102365.36;;;-4.52;76.31
76726;BME280;65651;53.154;17.916;2023-03-01T02:56:56;102355.02;;;-4.54;76.33
76726;BME280;65651;53.154;17.916;2023-03-01T02:59:30;102356.79;;;-4.53;76.38
76726;BME280;65651;53.154;17.916;2023-03-01T03:02:00;102354.50;;;-4.52;76.36
76726;BME280;65651;53.154;17.916;2023-03-01T03:04:28;102351.52;;;-4.51;76.40
76726;BME280;65651;53.154;17.916;2023-03-01T03:06:58;102353.77;;;-4.50;76.39
76726;BME280;65651;53.154;17.916;2023-03-01T03:09:26;102355.35;;;-4.48;76.43
76726;BME280;65651;53.154;17.916;2023-03-01T03:11:54;102351.67;;;-4.46;76.35
76726;BME280;65651;53.154;17.916;2023-03-01T03:14:22;102350.09;;;-4.45;76.43
76726;BME280;65651;53.154;17.916;2023-03-01T03:16:50;102352.54;;;-4.45;76.37
76726;BME280;65651;53.154;17.916;2023-03-01T03:19:19;102353.25;;;-4.47;76.41
76726;BME280;65651;53.154;17.916;2023-03-01T03:21:46;102350.28;;;-4.47;76.43
76726;BME280;65651;53.154;17.916;2023-03-01T03:24:14;102346.06;;;-4.50;76.44
76726;BME280;65651;53.154;17.916;2023-03-01T03:26:41;102342.59;;;-4.54;76.45
76726;BME280;65651;53.154;17.916;2023-03-01T03:29:08;102342.59;;;-4.56;76.43
76726;BME280;65651;53.154;17.916;2023-03-01T03:31:36;102336.67;;;-4.60;76.48
76726;BME280;65651;53.154;17.916;2023-03-01T03:34:03;102333.16;;;-4.63;76.45
76726;BME280;65651;53.154;17.916;2023-03-01T03:36:31;102329.15;;;-4.65;76.47
76726;BME280;65651;53.154;17.916;2023-03-01T03:38:58;102322.31;;;-4.67;76.65
76726;BME280;65651;53.154;17.916;2023-03-01T03:41:26;102319.70;;;-4.68;76.63
76726;BME280;65651;53.154;17.916;2023-03-01T03:43:54;102321.11;;;-4.69;76.68
76726;BME280;65651;53.154;17.916;2023-03-01T03:46:24;102317.63;;;-4.71;76.67
76726;BME280;65651;53.154;17.916;2023-03-01T03:48:52;102315.70;;;-4.72;76.64
76726;BME280;65651;53.154;17.916;2023-03-01T03:51:19;102314.28;;;-4.73;76.63
76726;BME280;65651;53.154;17.916;2023-03-01T03:53:49;102308.34;;;-4.73;76.71
76726;BME280;65651;53.154;17.916;2023-03-01T03:56:17;102312.89;;;-4.74;76.67
76726;BME280;65651;53.154;17.916;2023-03-01T03:58:44;102317.45;;;-4.75;76.73
76726;BME280;65651;53.154;17.916;2023-03-01T04:01:12;102315.52;;;-4.75;76.71
76726;BME280;65651;53.154;17.916;2023-03-01T04:03:39;102311.33;;;-4.75;76.83
76726;BME280;65651;53.154;17.916;2023-03-01T04:06:08;102312.38;;;-4.76;76.87
76726;BME280;65651;53.154;17.916;2023-03-01T04:08:36;102319.20;;;-4.74;76.78
76726;BME280;65651;53.154;17.916;2023-03-01T04:11:04;102317.80;;;-4.72;76.78
76726;BME280;65651;53.154;17.916;2023-03-01T04:13:55;102322.33;;;-4.69;76.83
76726;BME280;65651;53.154;17.916;2023-03-01T04:16:23;102321.08;;;-4.63;76.85
76726;BME280;65651;53.154;17.916;2023-03-01T04:18:51;102318.27;;;-4.59;76.91
76726;BME280;65651;53.154;17.916;2023-03-01T04:21:20;102318.77;;;-4.55;76.84
76726;BME280;65651;53.154;17.916;2023-03-01T04:23:49;102322.59;;;-4.50;76.90
76726;BME280;65651;53.154;17.916;2023-03-01T04:26:19;102321.70;;;-4.48;76.96
76726;BME280;65651;53.154;17.916;2023-03-01T04:28:47;102324.69;;;-4.47;76.85
76726;BME280;65651;53.154;17.916;2023-03-01T04:31:18;102322.76;;;-4.46;76.91
76726;BME280;65651;53.154;17.916;2023-03-01T04:33:53;102322.23;;;-4.46;77.06
76726;BME280;65651;53.154;17.916;2023-03-01T04:36:25;102312.58;;;-4.46;76.96
76726;BME280;65651;53.154;17.916;2023-03-01T04:38:54;102312.23;;;-4.46;77.17
76726;BME280;65651;53.154;17.916;2023-03-01T04:41:23;102305.77;;;-4.47;77.02
76726;BME280;65651;53.154;17.916;2023-03-01T04:43:50;102302.77;;;-4.46;76.97
76726;BME280;65651;53.154;17.916;2023-03-01T04:46:20;102303.48;;;-4.46;77.01
76726;BME280;65651;53.154;17.916;2023-03-01T04:48:48;102302.59;;;-4.46;77.11
76726;BME280;65651;53.154;17.916;2023-03-01T04:51:16;102303.83;;;-4.46;76.97
76726;BME280;65651;53.154;17.916;2023-03-01T04:53:45;102304.70;;;-4.46;77.02
76726;BME280;65651;53.154;17.916;2023-03-01T04:56:13;102304.86;;;-4.45;77.10
76726;BME280;65651;53.154;17.916;2023-03-01T04:58:42;102298.36;;;-4.44;77.19
76726;BME280;65651;53.154;17.916;2023-03-01T05:01:17;102295.55;;;-4.42;77.05
76726;BME280;65651;53.154;17.916;2023-03-01T05:03:48;102291.52;;;-4.41;77.15
76726;BME280;65651;53.154;17.916;2023-03-01T05:06:17;102293.79;;;-4.40;77.18
76726;BME280;65651;53.154;17.916;2023-03-01T05:08:45;102301.66;;;-4.38;77.18
76726;BME280;65651;53.154;17.916;2023-03-01T05:11:12;102301.84;;;-4.39;77.22
76726;BME280;65651;53.154;17.916;2023-03-01T05:13:40;102304.14;;;-4.40;77.01
76726;BME280;65651;53.154;17.916;2023-03-01T05:16:08;102306.42;;;-4.43;77.08
76726;BME280;65651;53.154;17.916;2023-03-01T05:18:40;102305.23;;;-4.46;77.18
76726;BME280;65651;53.154;17.916;2023-03-01T05:21:10;102306.10;;;-4.49;77.14
76726;BME280;65651;53.154;17.916;2023-03-01T05:23:38;102308.40;;;-4.50;77.22
76726;BME280;65651;53.154;17.916;2023-03-01T05:26:07;102309.45;;;-4.50;77.19
76726;BME280;65651;53.154;17.916;2023-03-01T05:28:35;102303.32;;;-4.50;77.09
76726;BME280;65651;53.154;17.916;2023-03-01T05:31:02;102303.16;;;-4.52;77.19
76726;BME280;65651;53.154;17.916;2023-03-01T05:33:30;102299.66;;;-4.53;77.25
76726;BME280;65651;53.154;17.916;2023-03-01T05:36:00;102297.75;;;-4.53;77.38
76726;BME280;65651;53.154;17.916;2023-03-01T05:38:27;102294.92;;;-4.54;77.45
76726;BME280;65651;53.154;17.916;2023-03-01T05:40:54;102295.28;;;-4.54;77.29
76726;BME280;65651;53.154;17.916;2023-03-01T05:43:26;102296.34;;;-4.53;77.47
76726;BME280;65651;53.154;17.916;2023-03-01T05:45:57;102297.38;;;-4.51;77.37
76726;BME280;65651;53.154;17.916;2023-03-01T05:48:25;102295.25;;;-4.50;77.29
76726;BME280;65651;53.154;17.916;2023-03-01T05:50:59;102295.59;;;-4.46;77.38
76726;BME280;65651;53.154;17.916;2023-03-01T05:53:27;102296.61;;;-4.42;77.36
76726;BME280;65651;53.154;17.916;2023-03-01T05:55:54;102297.63;;;-4.36;77.30
76726;BME280;65651;53.154;17.916;2023-03-01T05:58:22;102299.52;;;-4.30;77.41
76726;BME280;65651;53.154;17.916;2023-03-01T06:00:50;102302.27;;;-4.22;77.21
76726;BME280;65651;53.154;17.916;2023-03-01T06:03:18;102299.92;;;-4.14;77.34
76726;BME280;65651;53.154;17.916;2023-03-01T06:05:45;102301.79;;;-4.04;77.27
76726;BME280;65651;53.154;17.916;2023-03-01T06:08:13;102304.34;;;-3.94;77.15
76726;BME280;65651;53.154;17.916;2023-03-01T06:10:40;102302.50;;;-3.85;77.13
76726;BME280;65651;53.154;17.916;2023-03-01T06:13:08;102303.29;;;-3.73;76.99
76726;BME280;65651;53.154;17.916;2023-03-01T06:15:36;102306.35;;;-3.63;77.06
76726;BME280;65651;53.154;17.916;2023-03-01T06:18:04;102304.99;;;-3.49;76.89
76726;BME280;65651;53.154;17.916;2023-03-01T06:20:31;102305.08;;;-3.40;76.82
76726;BME280;65651;53.154;17.916;2023-03-01T06:22:59;102313.59;;;-3.31;76.74
76726;BME280;65651;53.154;17.916;2023-03-01T06:25:27;102317.86;;;-3.20;76.73
76726;BME280;65651;53.154;17.916;2023-03-01T06:27:55;102312.28;;;-3.08;76.63
76726;BME280;65651;53.154;17.916;2023-03-01T06:30:25;102315.48;;;-2.97;76.43
76726;BME280;65651;53.154;17.916;2023-03-01T06:32:53;102313.64;;;-2.88;76.48
76726;BME280;65651;53.154;17.916;2023-03-01T06:35:29;102314.58;;;-2.79;76.42
76726;BME280;65651;53.154;17.916;2023-03-01T06:38:02;102314.69;;;-2.74;76.31
76726;BME280;65651;53.154;17.916;2023-03-01T06:40:31;102318.27;;;-2.65;76.41
76726;BME280;65651;53.154;17.916;2023-03-01T06:42:58;102316.23;;;-2.59;76.27
76726;BME280;65651;53.154;17.916;2023-03-01T06:45:29;102313.86;;;-2.51;76.17
76726;BME280;65651;53.154;17.916;2023-03-01T06:48:04;102316.24;;;-2.34;76.26
76726;BME280;65651;53.154;17.916;2023-03-01T06:50:33;102317.20;;;-2.14;76.14
76726;BME280;65651;53.154;17.916;2023-03-01T06:53:01;102316.98;;;-1.90;75.97
76726;BME280;65651;53.154;17.916;2023-03-01T06:55:30;102317.41;;;-1.62;75.86
76726;BME280;65651;53.154;17.916;2023-03-01T06:57:59;102313.42;;;-1.36;75.81
76726;BME280;65651;53.154;17.916;2023-03-01T07:00:27;102307.90;;;-1.14;75.50
76726;BME280;65651;53.154;17.916;2023-03-01T07:02:58;102300.11;;;-0.94;75.29
76726;BME280;65651;53.154;17.916;2023-03-01T07:05:26;102297.09;;;-0.76;74.98
76726;BME280;65651;53.154;17.916;2023-03-01T07:07:54;102300.08;;;-0.51;75.00
76726;BME280;65651;53.154;17.916;2023-03-01T07:10:23;102300.13;;;-0.22;74.58
76726;BME280;65651;53.154;17.916;2023-03-01T07:12:54;102292.21;;;-0.08;74.20
76726;BME280;65651;53.154;17.916;2023-03-01T07:15:21;102292.30;;;0.03;73.96
76726;BME280;65651;53.154;17.916;2023-03-01T07:17:49;102296.83;;;0.40;73.58
76726;BME280;65651;53.154;17.916;2023-03-01T07:20:18;102291.88;;;1.29;73.06
76726;BME280;65651;53.154;17.916;2023-03-01T07:22:49;102281.47;;;2.44;72.05
76726;BME280;65651;53.154;17.916;2023-03-01T07:25:16;102272.23;;;3.05;70.97
76726;BME280;65651;53.154;17.916;2023-03-01T07:27:49;102270.75;;;2.77;71.50
76726;BME280;65651;53.154;17.916;2023-03-01T07:30:17;102266.24;;;2.64;71.14
76726;BME280;65651;53.154;17.916;2023-03-01T07:32:44;102268.23;;;2.58;71.33
76726;BME280;65651;53.154;17.916;2023-03-01T07:35:13;102269.94;;;2.40;70.82
76726;BME280;65651;53.154;17.916;2023-03-01T07:37:42;102269.71;;;2.36;71.21
76726;BME280;65651;53.154;17.916;2023-03-01T07:40:10;102273.20;;;2.27;70.55
76726;BME280;65651;53.154;17.916;2023-03-01T07:42:37;102268.80;;;2.10;70.73
76726;BME280;65651;53.154;17.916;2023-03-01T07:45:06;102267.83;;;2.08;70.87
76726;BME280;65651;53.154;17.916;2023-03-01T07:47:33;102267.02;;;1.95;70.51
76726;BME280;65651;53.154;17.916;2023-03-01T07:50:00;102259.42;;;1.83;70.43
76726;BME280;65651;53.154;17.916;2023-03-01T07:52:28;102259.92;;;1.73;70.20
76726;BME280;65651;53.154;17.916;2023-03-01T07:54:56;102258.84;;;1.74;70.68
76726;BME280;65651;53.154;17.916;2023-03-01T07:57:24;102265.00;;;1.80;70.40
76726;BME280;65651;53.154;17.916;2023-03-01T07:59:54;102259.40;;;1.78;70.13
76726;BME280;65651;53.154;17.916;2023-03-01T08:02:25;102261.59;;;1.76;70.13
76726;BME280;65651;53.154;17.916;2023-03-01T08:04:52;102259.61;;;1.77;70.30
76726;BME280;65651;53.154;17.916;2023-03-01T08:07:20;102253.25;;;1.83;70.21
76726;BME280;65651;53.154;17.916;2023-03-01T08:09:48;102247.50;;;1.91;70.35
76726;BME280;65651;53.154;17.916;2023-03-01T08:12:15;102249.20;;;1.98;70.14
76726;BME280;65651;53.154;17.916;2023-03-01T08:14:45;102247.55;;;2.16;70.15
76726;BME280;65651;53.154;17.916;2023-03-01T08:17:14;102247.33;;;2.33;70.17
76726;BME280;65651;53.154;17.916;2023-03-01T08:19:42;102253.55;;;2.47;69.93
76726;BME280;65651;53.154;17.916;2023-03-01T08:22:10;102260.38;;;2.59;69.68
76726;BME280;65651;53.154;17.916;2023-03-01T08:24:38;102260.72;;;2.70;69.80
76726;BME280;65651;53.154;17.916;2023-03-01T08:27:06;102260.85;;;2.76;69.70
76726;BME280;65651;53.154;17.916;2023-03-01T08:29:33;102254.24;;;2.73;69.55
76726;BME280;65651;53.154;17.916;2023-03-01T08:32:03;102255.41;;;2.69;69.65
76726;BME280;65651;53.154;17.916;2023-03-01T08:34:31;102260.81;;;2.72;69.73
76726;BME280;65651;53.154;17.916;2023-03-01T08:36:58;102264.17;;;2.78;69.64
76726;BME280;65651;53.154;17.916;2023-03-01T08:39:26;102261.21;;;2.86;69.77
76726;BME280;65651;53.154;17.916;2023-03-01T08:41:53;102255.48;;;2.97;69.72
76726;BME280;65651;53.154;17.916;2023-03-01T08:44:22;102245.10;;;3.09;69.45
76726;BME280;65651;53.154;17.916;2023-03-01T08:46:50;102251.04;;;3.20;69.64
76726;BME280;65651;53.154;17.916;2023-03-01T08:49:21;102252.23;;;3.31;69.48
76726;BME280;65651;53.154;17.916;2023-03-01T08:51:49;102253.34;;;3.44;69.30
76726;BME280;65651;53.154;17.916;2023-03-01T08:54:21;102250.66;;;3.58;69.40
76726;BME280;65651;53.154;17.916;2023-03-01T08:56:49;102251.92;;;3.70;69.01
76726;BME280;65651;53.154;17.916;2023-03-01T08:59:17;102252.68;;;3.83;69.16
76726;BME280;65651;53.154;17.916;2023-03-01T09:01:45;102251.03;;;3.97;69.07
76726;BME280;65651;53.154;17.916;2023-03-01T09:04:14;102254.72;;;4.11;69.32
76726;BME280;65651;53.154;17.916;2023-03-01T09:06:42;102253.48;;;4.23;69.07
76726;BME280;65651;53.154;17.916;2023-03-01T09:09:15;102253.56;;;4.38;69.05
76726;BME280;65651;53.154;17.916;2023-03-01T09:11:44;102254.15;;;4.53;69.12
76726;BME280;65651;53.154;17.916;2023-03-01T09:14:17;102253.03;;;4.67;68.79
76726;BME280;65651;53.154;17.916;2023-03-01T09:16:44;102253.11;;;4.80;68.58
76726;BME280;65651;53.154;17.916;2023-03-01T09:19:12;102258.20;;;4.90;68.34
76726;BME280;65651;53.154;17.916;2023-03-01T09:21:43;102250.16;;;5.02;68.30
76726;BME280;65651;53.154;17.916;2023-03-01T09:24:23;102248.80;;;5.17;68.07
76726;BME280;65651;53.154;17.916;2023-03-01T09:26:54;102250.69;;;5.26;68.28
76726;BME280;65651;53.154;17.916;2023-03-01T09:29:22;102246.98;;;5.32;67.75
76726;BME280;65651;53.154;17.916;2023-03-01T09:31:50;102245.70;;;5.37;67.90
76726;BME280;65651;53.154;17.916;2023-03-01T09:34:17;102248.98;;;5.39;67.80
76726;BME280;65651;53.154;17.916;2023-03-01T09:36:50;102244.61;;;5.42;67.50
76726;BME280;65651;53.154;17.916;2023-03-01T09:39:18;102244.65;;;5.37;67.32
76726;BME280;65651;53.154;17.916;2023-03-01T09:41:47;102240.92;;;5.33;67.31
76726;BME280;65651;53.154;17.916;2023-03-01T09:47:00;102236.81;;;5.33;67.45
76726;BME280;65651;53.154;17.916;2023-03-01T09:49:30;102236.41;;;5.30;67.25
76726;BME280;65651;53.154;17.916;2023-03-01T09:52:09;102232.70;;;5.33;67.38
76726;BME280;65651;53.154;17.916;2023-03-01T09:54:39;102238.06;;;5.40;67.42
76726;BME280;65651;53.154;17.916;2023-03-01T09:57:16;102232.67;;;5.42;67.58
76726;BME280;65651;53.154;17.916;2023-03-01T10:02:38;102229.60;;;5.50;67.52
76726;BME280;65651;53.154;17.916;2023-03-01T10:05:31;102224.84;;;5.52;67.52
76726;BME280;65651;53.154;17.916;2023-03-01T10:10:53;102220.05;;;5.60;67.13
76726;BME280;65651;53.154;17.916;2023-03-01T10:13:43;102217.02;;;5.63;67.21
76726;BME280;65651;53.154;17.916;2023-03-01T10:16:21;102215.63;;;5.70;66.99
76726;BME280;65651;53.154;17.916;2023-03-01T10:18:58;102210.95;;;5.71;66.91
76726;BME280;65651;53.154;17.916;2023-03-01T10:21:28;102208.80;;;5.71;67.08
76726;BME280;65651;53.154;17.916;2023-03-01T10:24:10;102205.14;;;5.73;66.85
76726;BME280;65651;53.154;17.916;2023-03-01T10:26:55;102198.11;;;5.71;66.75
76726;BME280;65651;53.154;17.916;2023-03-01T10:29:45;102191.70;;;5.75;66.94
76726;BME280;65651;53.154;17.916;2023-03-01T10:32:15;102191.06;;;5.80;66.60
76726;BME280;65651;53.154;17.916;2023-03-01T10:34:45;102190.51;;;5.84;66.45
76726;BME280;65651;53.154;17.916;2023-03-01T10:42:48;102178.84;;;5.93;66.55
76726;BME280;65651;53.154;17.916;2023-03-01T10:45:33;102179.70;;;5.98;66.54
76726;BME280;65651;53.154;17.916;2023-03-01T10:48:10;102175.23;;;6.05;66.37
76726;BME280;65651;53.154;17.916;2023-03-01T10:50:43;102175.11;;;6.14;66.32
76726;BME280;65651;53.154;17.916;2023-03-01T10:56:00;102171.08;;;6.19;65.98
76726;BME280;65651;53.154;17.916;2023-03-01T10:58:29;102168.77;;;6.23;66.27
76726;BME280;65651;53.154;17.916;2023-03-01T11:03:44;102153.83;;;6.26;66.25
76726;BME280;65651;53.154;17.916;2023-03-01T11:14:20;102141.06;;;6.51;65.85
76726;BME280;65651;53.154;17.916;2023-03-01T11:17:01;102139.36;;;6.56;65.79
76726;BME280;65651;53.154;17.916;2023-03-01T11:19:29;102141.52;;;6.59;65.87
76726;BME280;65651;53.154;17.916;2023-03-01T11:22:07;102139.83;;;6.64;65.66
76726;BME280;65651;53.154;17.916;2023-03-01T11:24:51;102136.38;;;6.72;65.10
76726;BME280;65651;53.154;17.916;2023-03-01T11:27:24;102136.82;;;6.77;65.23
76726;BME280;65651;53.154;17.916;2023-03-01T11:32:43;102130.44;;;6.72;65.46
76726;BME280;65651;53.154;17.916;2023-03-01T11:35:24;102134.80;;;6.71;65.01
76726;BME280;65651;53.154;17.916;2023-03-01T11:38:09;102136.27;;;6.77;64.70
76726;BME280;65651;53.154;17.916;2023-03-01T11:41:06;102128.94;;;6.80;64.85
76726;BME280;65651;53.154;17.916;2023-03-01T11:46:33;102126.29;;;6.90;64.49
76726;BME280;65651;53.154;17.916;2023-03-01T11:49:22;102125.86;;;6.97;64.47
76726;BME280;65651;53.154;17.916;2023-03-01T12:12:31;102122.36;;;7.18;63.77
76726;BME280;65651;53.154;17.916;2023-03-01T12:15:20;102130.73;;;7.19;63.80
76726;BME280;65651;53.154;17.916;2023-03-01T12:18:06;102126.29;;;7.15;63.37
76726;BME280;65651;53.154;17.916;2023-03-01T12:20:51;102123.98;;;7.11;63.82
76726;BME280;65651;53.154;17.916;2023-03-01T12:23:34;102124.92;;;7.11;63.87
76726;BME280;65651;53.154;17.916;2023-03-01T12:26:59;102119.59;;;7.04;63.78
76726;BME280;65651;53.154;17.916;2023-03-01T12:48:55;102102.34;;;6.90;63.66
76726;BME280;65651;53.154;17.916;2023-03-01T12:51:29;102095.46;;;6.92;63.58
76726;BME280;65651;53.154;17.916;2023-03-01T12:53:58;102090.80;;;6.92;63.76
76726;BME280;65651;53.154;17.916;2023-03-01T12:56:29;102090.77;;;6.92;63.52
76726;BME280;65651;53.154;17.916;2023-03-01T13:17:50;102082.33;;;7.22;62.27
76726;BME280;65651;53.154;17.916;2023-03-01T13:20:21;102082.08;;;7.17;62.42
76726;BME280;65651;53.154;17.916;2023-03-01T13:23:00;102082.46;;;7.16;62.27
76726;BME280;65651;53.154;17.916;2023-03-01T13:25:28;102083.09;;;7.18;62.27
76726;BME280;65651;53.154;17.916;2023-03-01T13:28:37;102079.02;;;7.14;62.33
76726;BME280;65651;53.154;17.916;2023-03-01T13:31:05;102079.15;;;7.15;62.25
76726;BME280;65651;53.154;17.916;2023-03-01T13:33:40;102079.33;;;7.15;62.43
76726;BME280;65651;53.154;17.916;2023-03-01T13:36:09;102080.06;;;7.15;62.09
76726;BME280;65651;53.154;17.916;2023-03-01T13:44:33;102076.36;;;7.11;62.12
76726;BME280;65651;53.154;17.916;2023-03-01T13:49:52;102069.65;;;7.07;62.17
76726;BME280;65651;53.154;17.916;2023-03-01T13:52:43;102068.27;;;7.12;62.31
76726;BME280;65651;53.154;17.916;2023-03-01T13:57:43;102060.17;;;7.10;61.97
76726;BME280;65651;53.154;17.916;2023-03-01T14:03:15;102062.51;;;7.15;62.19
76726;BME280;65651;53.154;17.916;2023-03-01T14:08:30;102056.19;;;7.11;62.42
76726;BME280;65651;53.154;17.916;2023-03-01T14:19:15;102043.02;;;7.07;62.28
76726;BME280;65651;53.154;17.916;2023-03-01T14:21:47;102039.38;;;7.08;62.39
76726;BME280;65651;53.154;17.916;2023-03-01T14:24:20;102041.52;;;7.05;62.07
76726;BME280;65651;53.154;17.916;2023-03-01T14:26:51;102036.71;;;7.05;62.61
76726;BME280;65651;53.154;17.916;2023-03-01T14:29:36;102027.19;;;7.03;62.34
76726;BME280;65651;53.154;17.916;2023-03-01T14:32:22;102026.57;;;7.01;62.32
76726;BME280;65651;53.154;17.916;2023-03-01T14:34:51;102027.98;;;6.98;62.16
76726;BME280;65651;53.154;17.916;2023-03-01T14:37:31;102024.29;;;6.97;62.32
76726;BME280;65651;53.154;17.916;2023-03-01T14:40:01;102021.55;;;6.95;62.49
76726;BME280;65651;53.154;17.916;2023-03-01T14:42:34;102017.98;;;6.92;62.76
76726;BME280;65651;53.154;17.916;2023-03-01T14:45:03;102018.74;;;6.91;62.18
76726;BME280;65651;53.154;17.916;2023-03-01T14:47:33;102015.46;;;6.92;62.36
76726;BME280;65651;53.154;17.916;2023-03-01T14:50:15;102016.02;;;6.95;62.20
76726;BME280;65651;53.154;17.916;2023-03-01T14:52:47;102017.52;;;6.97;62.37
76726;BME280;65651;53.154;17.916;2023-03-01T14:55:41;102012.65;;;7.01;62.37
76726;BME280;65651;53.154;17.916;2023-03-01T14:58:14;102015.69;;;7.04;62.41
76726;BME280;65651;53.154;17.916;2023-03-01T15:00:57;102011.70;;;6.99;62.43
76726;BME280;65651;53.154;17.916;2023-03-01T15:05:58;101998.80;;;7.06;62.32
76726;BME280;65651;53.154;17.916;2023-03-01T15:08:27;101999.30;;;7.04;62.25
76726;BME280;65651;53.154;17.916;2023-03-01T15:11:05;101997.77;;;7.02;62.07
76726;BME280;65651;53.154;17.916;2023-03-01T15:13:34;102000.48;;;6.98;62.50
76726;BME280;65651;53.154;17.916;2023-03-01T15:16:10;102003.59;;;6.94;62.53
76726;BME280;65651;53.154;17.916;2023-03-01T15:18:45;102006.09;;;6.91;62.81
76726;BME280;65651;53.154;17.916;2023-03-01T15:23:54;102002.34;;;6.82;62.70